Main page
METAR-TAF:

METAR-TAF

Airports :

Moss Airport. Rygge

Rygge, Norway

latitude: 59-23N, longitude: 010-47E, elevation: 5 m

Current weather observation

The report was made 42 minutes ago, at 11:20 UTC
Wind 7 kt from the Southwest, varying between South and West/Southwest
Temperature 17°C
Humidity 68%
Pressure 1013 hPa
Visibility 10 km or more
Broken clouds at a height of 3100 ft

METAR: ENRY 231120Z 22007KT 180V240 9999 BKN031 17/11 Q1013

Time: 14:02 (12:02 UTC)

Forecast

The report was made 1 hour and 2 minutes ago, at 11:00 UTC
Forecast valid from 23 at 12 UTC to 24 at 12 UTC
Wind 10 kt from the South/Southwest
Visibility 10 km or more
Scattered clouds at a height of 2500 ft
Becoming
from 23 at 20 UTC to 23 at 22 UTC
Wind 5 kt from the North/Northeast
Probability 40%
from 23 at 23 UTC to 24 at 06 UTC
Visibility: 0300 m
at a height of 200 ft
fog,

TAF: ENRY 231100Z 2312/2412 20010KT 9999 SCT025 BECMG 2320/2322 02005KT PROB40 2323/2406 0300 FG VV002

Weather observations and forecasts of more than 4000 airports (METAR and TAF reports).

The available stations are represented by yellow and red dots on the map.

Hover mouse over dot to see the name of the station.

Then click to see weather observations and forecasts.

To change the map : click on the green buttons with a black cross to zoom in, on the green button with a dash to zoom out, or on the green arrows for adjacent maps.


METAR-TAF: